Time;durP1;ratioP1;P1;durP2;ratioP2;P2;SDS_P1;SDS_P2;PMS_P1;PMS_P2;Temp;Humidity;BMP_temperature;BMP_pressure;BME280_temperature;BME280_humidity;BME280_pressure;Samples;Min_cycle;Max_cycle;Signal;HPM_P1;HPM_P2
2022/07/04 00:02:04;;;;;;;41.15;8.27;;;20.60;90.50;;;;;;5013866;28;20017;-79
2022/07/04 00:04:29;;;;;;;39.15;6.85;;;20.70;90.50;;;;;;5012945;28;20036;-77
2022/07/04 00:06:55;;;;;;;32.60;6.82;;;20.60;90.60;;;;;;5012968;28;20079;-78
2022/07/04 00:09:20;;;;;;;34.53;7.18;;;20.70;90.40;;;;;;5013976;28;20060;-78
2022/07/04 00:11:46;;;;;;;33.00;7.10;;;20.70;90.40;;;;;;5013639;28;20141;-79
2022/07/04 00:14:12;;;;;;;32.80;6.00;;;20.70;90.30;;;;;;5013443;28;20033;-79
2022/07/04 00:16:37;;;;;;;33.80;6.15;;;20.70;90.30;;;;;;5013173;28;20037;-78
2022/07/04 00:19:03;;;;;;;30.30;6.43;;;20.70;90.40;;;;;;5012948;28;20395;-78
2022/07/04 00:21:28;;;;;;;28.20;6.00;;;20.70;90.40;;;;;;5023795;28;20030;-78
2022/07/04 00:23:54;;;;;;;37.10;7.47;;;20.60;90.40;;;;;;4993194;28;20033;-78
2022/07/04 00:26:19;;;;;;;31.25;6.40;;;20.70;90.60;;;;;;5010815;28;20026;-77
2022/07/04 00:28:45;;;;;;;31.20;6.65;;;20.60;90.50;;;;;;4993268;28;20064;-78
2022/07/04 00:31:10;;;;;;;31.02;6.53;;;20.60;90.50;;;;;;4992962;28;20034;-77
2022/07/04 00:33:36;;;;;;;31.98;6.35;;;20.60;90.60;;;;;;5010203;28;20062;-78
2022/07/04 00:36:02;;;;;;;28.77;6.75;;;20.60;90.60;;;;;;5010258;28;20062;-79
2022/07/04 00:38:28;;;;;;;25.50;5.72;;;20.60;90.60;;;;;;4992834;28;20026;-78
2022/07/04 00:40:53;;;;;;;28.73;6.35;;;20.60;90.60;;;;;;4993074;28;20022;-78
2022/07/04 00:43:27;;;;;;;34.30;6.95;;;20.60;90.60;;;;;;4995392;28;20548;-78
2022/07/04 00:45:52;;;;;;;28.52;5.93;;;20.60;90.60;;;;;;5002692;28;20381;-78
2022/07/04 00:48:18;;;;;;;23.90;6.38;;;20.60;90.60;;;;;;5016428;28;20034;-78
2022/07/04 00:50:46;;;;;;;23.98;5.20;;;20.60;90.60;;;;;;5018746;28;20030;-78
2022/07/04 00:53:16;;;;;;;24.60;5.55;;;20.60;90.60;;;;;;4991870;28;20041;-78
2022/07/04 00:55:42;;;;;;;24.95;5.80;;;20.60;90.50;;;;;;5010081;28;20048;-77
2022/07/04 00:58:08;;;;;;;26.77;6.20;;;20.70;90.50;;;;;;5000334;28;20029;-78
2022/07/04 01:00:34;;;;;;;26.73;5.75;;;20.70;90.40;;;;;;4991634;28;20026;-78
2022/07/04 01:02:59;;;;;;;24.15;5.50;;;20.70;90.40;;;;;;5010790;28;20052;-79
2022/07/04 01:05:25;;;;;;;20.58;5.82;;;20.70;90.40;;;;;;5019258;28;20480;-78
2022/07/04 01:07:51;;;;;;;19.95;5.38;;;20.70;90.40;;;;;;5025051;28;20813;-78
2022/07/04 01:10:16;;;;;;;26.60;5.32;;;20.70;90.40;;;;;;5015382;28;20030;-77
2022/07/04 01:12:42;;;;;;;27.60;6.28;;;20.70;90.50;;;;;;4994042;28;20457;-78
2022/07/04 01:15:07;;;;;;;24.83;5.30;;;20.60;90.50;;;;;;4994738;28;20038;-78
2022/07/04 01:17:33;;;;;;;20.05;5.90;;;20.50;90.50;;;;;;5010433;28;20030;-79
2022/07/04 01:19:59;;;;;;;23.50;5.00;;;20.60;90.60;;;;;;4997521;28;20121;-79
2022/07/04 01:22:24;;;;;;;24.25;5.03;;;20.60;90.70;;;;;;5004924;28;20022;-78
2022/07/04 01:24:50;;;;;;;21.20;5.30;;;20.60;90.70;;;;;;5004494;28;20034;-78
2022/07/04 01:27:16;;;;;;;25.05;5.45;;;20.60;90.70;;;;;;4998555;28;20037;-78
2022/07/04 01:29:42;;;;;;;24.83;5.78;;;20.60;90.70;;;;;;5001119;28;20394;-78
2022/07/04 01:32:09;;;;;;;21.77;5.30;;;20.60;90.70;;;;;;4996059;28;20040;-78
2022/07/04 01:34:34;;;;;;;21.05;4.60;;;20.60;90.70;;;;;;5003310;28;20492;-79
2022/07/04 01:37:01;;;;;;;24.15;5.80;;;20.60;90.70;;;;;;4997201;28;20079;-79
2022/07/04 01:39:28;;;;;;;20.27;4.60;;;20.50;90.70;;;;;;5024013;28;20022;-79
2022/07/04 01:41:53;;;;;;;16.20;4.35;;;20.60;90.60;;;;;;5002667;28;20659;-78
2022/07/04 01:44:20;;;;;;;20.88;4.63;;;20.60;90.60;;;;;;5010759;28;20052;-79
2022/07/04 01:46:46;;;;;;;20.70;4.60;;;20.60;90.60;;;;;;5008014;28;20084;-78
2022/07/04 01:49:11;;;;;;;19.05;4.75;;;20.60;90.50;;;;;;5011003;28;20512;-78
2022/07/04 01:51:47;;;;;;;18.73;4.72;;;20.60;90.40;;;;;;5005345;28;20492;-78
2022/07/04 01:54:12;;;;;;;15.38;4.22;;;20.70;90.40;;;;;;4996629;28;20033;-79
2022/07/04 01:56:40;;;;;;;18.05;4.85;;;20.70;90.50;;;;;;5010658;28;20087;-78
2022/07/04 01:59:06;;;;;;;22.63;4.47;;;20.60;90.30;;;;;;5003491;28;20026;-77
2022/07/04 02:01:31;;;;;;;19.60;4.22;;;20.60;90.40;;;;;;5016588;28;20137;-78
2022/07/04 02:03:58;;;;;;;18.50;5.05;;;20.60;90.50;;;;;;5023000;28;20071;-78
2022/07/04 02:06:24;;;;;;;20.73;4.95;;;20.60;90.60;;;;;;4996504;28;20032;-79
2022/07/04 02:14:19;;;;;;;18.25;4.78;;;20.60;90.70;;;;;;5037527;28;20035;-79
2022/07/04 02:16:44;;;;;;;17.02;4.50;;;20.50;90.70;;;;;;5013637;28;20029;-78
2022/07/04 02:19:10;;;;;;;21.83;4.90;;;20.50;90.70;;;;;;5007922;28;20094;-78
2022/07/04 02:21:36;;;;;;;19.50;5.15;;;20.50;90.70;;;;;;4992382;28;20557;-78
2022/07/04 02:24:01;;;;;;;17.20;4.60;;;20.50;90.70;;;;;;5009109;28;20037;-79
2022/07/04 02:26:27;;;;;;;15.73;4.47;;;20.50;90.70;;;;;;4993161;28;20113;-79
2022/07/04 02:28:53;;;;;;;18.40;4.43;;;20.50;90.70;;;;;;4993936;28;20034;-78
2022/07/04 02:31:18;;;;;;;13.50;3.25;;;20.50;90.70;;;;;;5012223;28;20030;-76
2022/07/04 02:33:44;;;;;;;17.42;4.22;;;20.50;90.60;;;;;;4996958;28;20470;-78
2022/07/04 02:36:09;;;;;;;18.23;3.85;;;20.60;90.60;;;;;;5014358;28;20841;-77
2022/07/04 02:38:35;;;;;;;12.38;3.58;;;20.60;90.60;;;;;;5010189;28;20758;-78
2022/07/04 02:41:00;;;;;;;13.90;4.05;;;20.60;90.50;;;;;;5005652;28;20116;-79
2022/07/04 02:43:26;;;;;;;16.23;3.75;;;20.60;90.50;;;;;;5002247;28;20022;-79
2022/07/04 02:45:51;;;;;;;14.30;3.80;;;20.60;90.50;;;;;;5014410;28;20029;-78
2022/07/04 02:48:17;;;;;;;14.52;3.95;;;20.70;90.50;;;;;;5002660;28;20029;-78
2022/07/04 02:50:42;;;;;;;14.55;3.85;;;20.60;90.40;;;;;;5026268;28;20033;-78
2022/07/04 02:53:08;;;;;;;15.40;4.18;;;20.60;90.50;;;;;;5012715;28;20033;-78
2022/07/04 02:55:34;;;;;;;16.02;4.18;;;20.60;90.50;;;;;;4998288;28;20037;-78
2022/07/04 02:57:59;;;;;;;13.18;3.72;;;20.60;90.60;;;;;;5020373;28;20034;-77
2022/07/04 03:00:25;;;;;;;16.80;4.13;;;20.60;90.70;;;;;;5014157;28;20025;-78
2022/07/04 03:02:50;;;;;;;14.80;3.88;;;20.50;90.70;;;;;;5004959;28;20529;-78
2022/07/04 03:05:16;;;;;;;13.95;4.38;;;20.50;90.70;;;;;;5013003;28;20036;-78
2022/07/04 03:07:41;;;;;;;13.23;3.55;;;20.50;90.70;;;;;;5016411;28;20029;-78
2022/07/04 03:10:07;;;;;;;16.35;4.10;;;20.50;90.80;;;;;;5028646;28;20474;-78
2022/07/04 03:12:33;;;;;;;14.57;3.92;;;20.50;90.80;;;;;;5030748;28;20108;-79
2022/07/04 03:14:59;;;;;;;14.38;3.92;;;20.50;90.80;;;;;;5031980;28;20025;-78
2022/07/04 03:17:25;;;;;;;16.05;3.25;;;20.50;90.80;;;;;;5003854;28;20523;-78
2022/07/04 03:19:51;;;;;;;11.43;3.30;;;20.50;90.70;;;;;;5012142;28;20109;-77
2022/07/04 03:22:16;;;;;;;10.43;3.15;;;20.50;91.00;;;;;;5017752;28;20022;-78
2022/07/04 03:24:42;;;;;;;12.80;3.70;;;20.50;90.70;;;;;;4994403;28;20078;-77
2022/07/04 03:27:07;;;;;;;13.88;3.83;;;20.50;90.70;;;;;;5013655;28;20090;-78
2022/07/04 03:29:33;;;;;;;9.93;2.92;;;20.60;90.70;;;;;;5006961;28;20030;-77
2022/07/04 03:31:59;;;;;;;11.90;2.90;;;20.60;90.60;;;;;;5011519;28;20084;-78
2022/07/04 03:34:24;;;;;;;14.35;3.67;;;20.60;90.50;;;;;;5011775;28;20108;-77
2022/07/04 03:36:50;;;;;;;13.35;3.22;;;20.60;90.50;;;;;;5011889;28;20112;-78
2022/07/04 03:39:15;;;;;;;13.00;3.40;;;20.60;90.50;;;;;;5008161;28;20026;-78
2022/07/04 03:41:41;;;;;;;13.65;3.15;;;20.60;90.40;;;;;;5010757;28;20033;-77
2022/07/04 03:44:06;;;;;;;15.13;3.92;;;20.60;90.40;;;;;;5012348;28;20026;-78
2022/07/04 03:46:32;;;;;;;14.43;3.70;;;20.60;90.60;;;;;;5031301;28;20571;-78
2022/07/04 03:48:57;;;;;;;13.40;3.15;;;20.60;90.60;;;;;;5029222;28;20026;-78
2022/07/04 03:51:23;;;;;;;12.00;3.33;;;20.60;90.70;;;;;;4999155;28;20055;-77
2022/07/04 03:53:48;;;;;;;11.38;3.13;;;20.50;90.70;;;;;;4994683;28;20120;-77
2022/07/04 03:56:14;;;;;;;14.98;3.67;;;20.50;90.70;;;;;;4996894;28;20026;-77
2022/07/04 03:58:42;;;;;;;12.20;3.47;;;20.50;90.80;;;;;;5024189;28;20455;-78
2022/07/04 04:01:08;;;;;;;10.75;3.28;;;20.50;90.80;;;;;;5026706;28;20021;-77
2022/07/04 04:06:17;;;;;;;11.38;3.00;;;20.50;90.80;;;;;;5010306;28;20059;-77
2022/07/04 04:08:43;;;;;;;13.68;3.85;;;20.50;90.80;;;;;;5022676;28;20520;-79
2022/07/04 04:11:08;;;;;;;10.38;3.13;;;20.50;90.80;;;;;;5003485;28;20034;-78
2022/07/04 04:13:34;;;;;;;10.27;2.70;;;20.50;90.70;;;;;;5011829;28;20082;-79
2022/07/04 04:16:00;;;;;;;9.80;3.33;;;20.50;90.70;;;;;;5029876;28;20034;-78
2022/07/04 04:18:25;;;;;;;9.85;3.35;;;20.50;90.60;;;;;;5004115;28;20038;-78
2022/07/04 04:20:51;;;;;;;12.02;2.67;;;20.50;90.60;;;;;;5012914;28;20038;-79
2022/07/04 04:23:16;;;;;;;10.65;2.85;;;20.60;90.60;;;;;;5003980;28;20022;-78
2022/07/04 04:25:42;;;;;;;10.55;3.03;;;20.60;90.50;;;;;;4994897;28;20168;-79
2022/07/04 04:28:07;;;;;;;10.57;3.08;;;20.60;90.40;;;;;;5022375;28;20052;-79
2022/07/04 04:30:33;;;;;;;9.40;2.58;;;20.60;90.40;;;;;;5003635;28;20397;-78
2022/07/04 04:32:59;;;;;;;10.98;2.85;;;20.60;90.40;;;;;;5003171;28;20033;-79
2022/07/04 04:35:24;;;;;;;10.15;3.40;;;20.60;90.40;;;;;;4995677;28;20063;-77
2022/07/04 04:37:50;;;;;;;10.13;3.22;;;20.60;90.60;;;;;;5026904;28;20048;-78
2022/07/04 04:40:16;;;;;;;12.93;3.20;;;20.60;90.60;;;;;;5051881;28;20063;-78
2022/07/04 04:42:42;;;;;;;10.90;3.03;;;20.60;90.60;;;;;;5027959;28;20056;-78
2022/07/04 04:45:08;;;;;;;10.90;3.40;;;20.50;90.70;;;;;;5017494;28;20061;-78
2022/07/04 04:47:33;;;;;;;11.10;3.05;;;20.50;90.70;;;;;;5033326;28;20448;-78
2022/07/04 04:50:00;;;;;;;10.10;3.22;;;20.50;90.70;;;;;;5035919;28;20041;-77
2022/07/04 04:52:25;;;;;;;9.10;2.90;;;20.50;90.70;;;;;;5028077;28;20025;-78
2022/07/04 04:54:51;;;;;;;10.20;3.03;;;20.50;90.70;;;;;;5030113;28;20072;-77
2022/07/04 04:57:17;;;;;;;10.00;2.88;;;20.50;90.70;;;;;;5031177;28;20021;-77
2022/07/04 04:59:42;;;;;;;11.63;3.03;;;20.50;90.70;;;;;;5013536;28;20862;-77
2022/07/04 05:02:08;;;;;;;11.82;3.00;;;20.50;90.70;;;;;;5014047;28;20025;-78
2022/07/04 05:04:33;;;;;;;11.10;3.25;;;20.50;90.70;;;;;;5013281;28;20026;-77
2022/07/04 05:06:59;;;;;;;11.75;3.55;;;20.50;90.60;;;;;;5012542;28;20033;-77
2022/07/04 05:09:25;;;;;;;8.98;2.60;;;20.50;90.60;;;;;;5028701;28;20580;-78
2022/07/04 05:11:51;;;;;;;11.98;3.13;;;20.60;90.60;;;;;;5014084;28;20037;-78
2022/07/04 05:14:16;;;;;;;9.00;2.63;;;20.60;90.50;;;;;;5029089;28;20064;-78
2022/07/04 05:16:42;;;;;;;7.43;2.30;;;20.60;90.50;;;;;;5012025;28;20034;-77
2022/07/04 05:19:08;;;;;;;10.00;2.58;;;20.60;90.40;;;;;;5011859;28;20033;-78
2022/07/04 05:21:33;;;;;;;9.00;2.92;;;20.60;90.40;;;;;;4995664;28;20026;-78
2022/07/04 05:23:59;;;;;;;9.27;2.72;;;20.60;90.40;;;;;;5008899;28;20736;-76
2022/07/04 05:26:25;;;;;;;10.95;2.85;;;20.60;90.40;;;;;;5008675;28;20044;-76
2022/07/04 05:28:50;;;;;;;9.57;2.80;;;20.60;90.40;;;;;;5024226;28;20049;-75
2022/07/04 05:31:16;;;;;;;9.80;2.72;;;20.60;90.50;;;;;;4996797;28;20029;-77
2022/07/04 05:33:42;;;;;;;9.52;2.50;;;20.60;90.50;;;;;;4999260;28;20187;-76
2022/07/04 05:36:08;;;;;;;9.00;2.63;;;20.60;90.60;;;;;;4986496;28;20076;-75
2022/07/04 05:38:33;;;;;;;8.93;2.38;;;20.60;90.60;;;;;;5003914;28;20064;-75
2022/07/04 05:40:59;;;;;;;9.20;2.60;;;20.60;90.60;;;;;;5006100;28;20041;-75
2022/07/04 05:43:25;;;;;;;7.55;2.28;;;20.60;90.60;;;;;;5008834;28;20021;-77
2022/07/04 05:45:51;;;;;;;11.05;2.65;;;20.60;90.60;;;;;;5004553;28;20030;-76
2022/07/04 05:48:17;;;;;;;7.90;2.30;;;20.60;90.60;;;;;;4991873;28;20044;-76
2022/07/04 05:50:42;;;;;;;9.45;2.67;;;20.60;90.60;;;;;;4988212;28;20026;-76
2022/07/04 05:53:08;;;;;;;9.50;2.47;;;20.60;90.50;;;;;;5006971;28;20084;-77
2022/07/04 05:55:36;;;;;;;7.47;2.42;;;20.60;90.60;;;;;;4992661;28;20217;-76
2022/07/04 05:58:02;;;;;;;6.45;2.30;;;20.60;90.50;;;;;;5011893;28;20157;-75
2022/07/04 06:00:27;;;;;;;7.43;2.55;;;20.60;90.50;;;;;;5006262;28;20591;-76
2022/07/04 06:02:53;;;;;;;8.32;2.30;;;20.60;90.40;;;;;;4998461;28;20039;-77
2022/07/04 06:05:18;;;;;;;8.95;2.50;;;20.60;90.40;;;;;;5023758;28;20064;-76
2022/07/04 06:07:44;;;;;;;7.85;2.15;;;20.70;90.30;;;;;;5005876;28;20104;-77
2022/07/04 06:10:09;;;;;;;6.88;2.03;;;20.70;90.30;;;;;;5005773;28;20043;-77
2022/07/04 06:12:35;;;;;;;10.32;2.70;;;20.70;90.20;;;;;;5002369;28;20094;-80
2022/07/04 06:15:01;;;;;;;7.05;2.05;;;20.70;90.20;;;;;;4988094;28;20030;-77
2022/07/04 06:17:27;;;;;;;10.57;3.13;;;20.70;90.10;;;;;;4989352;28;20062;-76
2022/07/04 06:19:53;;;;;;;9.07;2.53;;;20.60;90.20;;;;;;4987810;28;20026;-76
2022/07/04 06:22:18;;;;;;;8.27;2.58;;;20.60;90.30;;;;;;4992810;28;20028;-76
2022/07/04 06:24:44;;;;;;;8.18;3.05;;;20.60;90.20;;;;;;5007693;28;20026;-76
2022/07/04 06:27:10;;;;;;;9.30;3.22;;;20.60;90.00;;;;;;4995296;28;20044;-75
2022/07/04 06:29:35;;;;;;;10.23;2.65;;;20.60;89.40;;;;;;4998618;28;20026;-75
2022/07/04 06:32:01;;;;;;;8.10;2.50;;;20.60;89.40;;;;;;4987738;28;20137;-75
2022/07/04 06:37:10;;;;;;;9.18;2.67;;;20.70;89.50;;;;;;5005379;28;20077;-74
2022/07/04 06:39:36;;;;;;;9.60;2.80;;;20.70;89.30;;;;;;5022717;28;20431;-80
2022/07/04 06:42:01;;;;;;;6.75;2.53;;;20.70;89.70;;;;;;5020439;28;20030;-75
2022/07/04 06:44:27;;;;;;;7.72;2.78;;;20.70;89.00;;;;;;5024308;28;20022;-76
2022/07/04 06:46:53;;;;;;;6.35;2.60;;;20.70;89.00;;;;;;4987490;28;20021;-76
2022/07/04 06:49:19;;;;;;;7.88;2.67;;;20.70;89.20;;;;;;5001217;28;20052;-76
2022/07/04 06:51:44;;;;;;;8.55;2.53;;;20.70;89.20;;;;;;4985765;28;20653;-76
2022/07/04 06:54:10;;;;;;;7.45;2.70;;;20.70;89.10;;;;;;4985770;28;20038;-76
2022/07/04 06:56:35;;;;;;;9.45;2.70;;;20.80;89.00;;;;;;4985961;28;20448;-76
2022/07/04 06:59:03;;;;;;;9.18;2.60;;;20.80;88.80;;;;;;4985656;28;20079;-75
2022/07/04 07:01:28;;;;;;;6.75;2.45;;;20.80;88.70;;;;;;4985735;28;20485;-75
2022/07/04 07:03:54;;;;;;;7.82;2.65;;;20.80;88.60;;;;;;5022283;28;20037;-75
2022/07/04 07:06:19;;;;;;;6.75;2.50;;;20.90;88.60;;;;;;5024644;28;20030;-75
2022/07/04 07:08:45;;;;;;;6.07;2.40;;;20.90;88.60;;;;;;5005059;28;20037;-74
2022/07/04 07:11:13;;;;;;;7.85;2.55;;;20.80;88.60;;;;;;5010143;28;20030;-82
2022/07/04 07:13:44;;;;;;;5.20;2.28;;;20.80;88.60;;;;;;5010254;28;20120;-75
2022/07/04 07:16:10;;;;;;;7.35;2.35;;;20.80;88.60;;;;;;5002600;28;20492;-75
2022/07/04 07:18:36;;;;;;;6.35;2.33;;;20.90;88.60;;;;;;5007688;28;20116;-76
2022/07/04 07:21:01;;;;;;;6.55;2.75;;;20.90;88.60;;;;;;4999031;28;20117;-76
2022/07/04 07:23:28;;;;;;;6.72;2.47;;;20.90;88.50;;;;;;5009865;28;20026;-77
2022/07/04 07:25:54;;;;;;;6.43;2.47;;;20.90;88.60;;;;;;5010177;28;20756;-76
2022/07/04 07:28:19;;;;;;;6.75;2.67;;;20.90;88.50;;;;;;5027229;28;20112;-76
2022/07/04 07:30:44;;;;;;;5.40;2.70;;;20.90;88.50;;;;;;4995516;28;20613;-76
2022/07/04 07:33:10;;;;;;;7.85;2.80;;;20.90;88.50;;;;;;5020931;28;20077;-76
2022/07/04 07:35:36;;;;;;;6.30;2.50;;;20.90;88.60;;;;;;5010543;28;20087;-76
2022/07/04 07:38:02;;;;;;;6.45;2.30;;;20.90;88.60;;;;;;5009458;28;20125;-76
2022/07/04 07:40:27;;;;;;;7.35;2.35;;;20.90;88.60;;;;;;5012690;28;20037;-76
2022/07/04 07:42:54;;;;;;;6.72;2.40;;;21.00;88.50;;;;;;4998595;28;20033;-76
2022/07/04 07:45:20;;;;;;;6.78;2.60;;;21.00;88.40;;;;;;5000282;28;20024;-76
2022/07/04 07:47:46;;;;;;;11.38;2.58;;;21.00;87.90;;;;;;5003515;28;20029;-77
2022/07/04 07:50:12;;;;;;;15.70;3.15;;;21.00;87.90;;;;;;4999011;28;20045;-76
2022/07/04 07:52:38;;;;;;;11.00;3.00;;;21.10;87.30;;;;;;5017372;28;20025;-76
2022/07/04 07:55:04;;;;;;;14.15;3.17;;;21.10;86.90;;;;;;4999365;28;20048;-76
2022/07/04 07:57:30;;;;;;;10.93;2.80;;;21.10;86.80;;;;;;5002182;28;20612;-76
2022/07/04 07:59:56;;;;;;;12.70;3.13;;;21.10;86.80;;;;;;5008050;28;20033;-75
2022/07/04 08:04:34;;;;;;;10.02;2.47;;;21.10;86.80;;;;;;5000101;28;20513;-76
2022/07/04 08:05:08;;;;;;;10.88;2.67;;;21.10;86.80;;;;;;5014472;28;20112;-76
2022/07/04 08:07:34;;;;;;;9.57;3.13;;;21.10;86.80;;;;;;5013708;28;20042;-76
2022/07/04 08:09:59;;;;;;;9.00;2.67;;;21.10;86.80;;;;;;5015820;28;20040;-75
2022/07/04 08:12:25;;;;;;;9.07;2.70;;;21.10;86.80;;;;;;5020601;28;20030;-76
2022/07/04 08:14:50;;;;;;;8.68;2.90;;;21.10;86.90;;;;;;5008492;28;20108;-75
2022/07/04 08:17:16;;;;;;;9.43;2.80;;;21.20;87.00;;;;;;5003710;28;20029;-77
2022/07/04 08:19:41;;;;;;;9.23;2.70;;;21.10;86.80;;;;;;5012887;28;20072;-77
2022/07/04 08:22:07;;;;;;;8.02;2.58;;;21.20;86.90;;;;;;5020794;28;20018;-77
2022/07/04 08:24:32;;;;;;;10.73;3.13;;;21.20;86.90;;;;;;4993317;28;20030;-76
2022/07/04 08:26:58;;;;;;;10.32;3.00;;;21.20;86.90;;;;;;5004151;28;20037;-75
2022/07/04 08:29:23;;;;;;;8.63;2.60;;;21.20;87.00;;;;;;5005185;28;20022;-76
2022/07/04 08:31:49;;;;;;;8.05;2.65;;;21.20;87.00;;;;;;5024737;28;20087;-76
2022/07/04 08:34:15;;;;;;;6.72;2.72;;;21.20;87.00;;;;;;5026836;28;20017;-77
2022/07/04 08:36:41;;;;;;;8.18;3.00;;;21.30;86.90;;;;;;5007230;28;20029;-76
2022/07/04 08:39:06;;;;;;;9.52;3.05;;;21.30;86.70;;;;;;4995629;28;20036;-75
2022/07/04 08:41:37;;;;;;;7.53;2.60;;;21.30;86.50;;;;;;5026214;28;20071;-76
2022/07/04 08:44:06;;;;;;;7.80;2.97;;;21.30;86.40;;;;;;4996237;28;20029;-76
2022/07/04 08:46:35;;;;;;;8.32;2.70;;;21.40;86.30;;;;;;5001540;28;20064;-76
2022/07/04 08:49:06;;;;;;;9.07;3.25;;;21.30;86.40;;;;;;5016102;28;20029;-76
2022/07/04 08:51:52;;;;;;;8.07;2.87;;;21.30;86.50;;;;;;4992981;28;20038;-76
2022/07/04 08:59:50;;;;;;;6.57;2.88;;;21.30;86.70;;;;;;5013428;28;20172;-76
2022/07/04 09:02:18;;;;;;;7.15;2.80;;;21.30;86.80;;;;;;5006739;28;20484;-75
2022/07/04 09:04:44;;;;;;;7.97;2.92;;;21.30;86.70;;;;;;5020632;28;20113;-76
2022/07/04 09:07:12;;;;;;;7.97;3.00;;;21.30;86.70;;;;;;4988824;28;20038;-75
2022/07/04 09:09:40;;;;;;;6.82;2.80;;;21.30;86.90;;;;;;4988620;28;20493;-76
2022/07/04 09:12:05;;;;;;;5.55;2.30;;;21.30;86.80;;;;;;5008848;28;20496;-76
2022/07/04 09:14:32;;;;;;;6.47;2.50;;;21.30;86.90;;;;;;4996301;28;20107;-76
2022/07/04 09:16:58;;;;;;;7.72;2.47;;;21.30;86.90;;;;;;4990290;28;20119;-76
2022/07/04 09:19:24;;;;;;;4.97;2.45;;;21.30;86.90;;;;;;5010675;28;20459;-75
2022/07/04 09:21:49;;;;;;;7.75;2.53;;;21.30;86.90;;;;;;5015542;28;20025;-77
2022/07/04 09:24:15;;;;;;;5.07;2.38;;;21.30;87.00;;;;;;5004180;28;20026;-76
2022/07/04 09:26:44;;;;;;;5.90;2.60;;;21.40;86.90;;;;;;5005521;28;20025;-76
2022/07/04 09:29:10;;;;;;;5.60;2.50;;;21.40;86.70;;;;;;4994112;28;20048;-75
2022/07/04 09:31:37;;;;;;;7.15;2.85;;;21.50;86.50;;;;;;5001781;28;20747;-76
2022/07/04 09:34:05;;;;;;;6.63;2.63;;;21.50;86.30;;;;;;5024670;28;20037;-76
2022/07/04 09:36:39;;;;;;;6.65;2.13;;;21.50;86.10;;;;;;4988159;28;20022;-76
2022/07/04 09:39:19;;;;;;;6.25;2.20;;;21.50;86.00;;;;;;4991714;28;20030;-76
2022/07/04 09:42:03;;;;;;;4.72;2.30;;;21.50;85.90;;;;;;4999601;28;20025;-76
2022/07/04 09:44:34;;;;;;;5.93;2.28;;;21.50;85.90;;;;;;5007577;28;20041;-75
2022/07/04 09:47:22;;;;;;;5.95;2.40;;;21.50;86.10;;;;;;4995018;28;20061;-75
2022/07/04 09:50:08;;;;;;;5.85;2.20;;;21.50;86.40;;;;;;5005217;28;20083;-76
2022/07/04 09:52:46;;;;;;;5.07;2.10;;;21.40;86.60;;;;;;4994485;28;20083;-76
2022/07/04 09:55:12;;;;;;;6.68;2.47;;;21.40;86.60;;;;;;5007295;28;20041;-75
2022/07/04 09:57:43;;;;;;;7.63;1.90;;;21.40;86.60;;;;;;4998735;28;20037;-76
2022/07/04 10:00:25;;;;;;;6.50;2.22;;;21.50;86.60;;;;;;5005617;28;20535;-76
2022/07/04 10:02:51;;;;;;;5.75;2.20;;;21.40;86.70;;;;;;4993608;28;20117;-75
2022/07/04 10:05:29;;;;;;;6.28;2.10;;;21.40;86.80;;;;;;4993132;28;20865;-74
2022/07/04 10:07:57;;;;;;;5.57;2.42;;;21.40;86.90;;;;;;5005638;28;20029;-75
2022/07/04 10:10:33;;;;;;;5.88;2.33;;;21.40;86.90;;;;;;4987865;28;20037;-76
2022/07/04 10:13:07;;;;;;;5.07;1.98;;;21.40;87.10;;;;;;4988410;28;20065;-75
2022/07/04 10:15:37;;;;;;;5.85;2.20;;;21.40;87.20;;;;;;4989619;28;20512;-75
2022/07/04 10:18:03;;;;;;;4.82;2.10;;;21.40;87.00;;;;;;5004414;28;20830;-76
2022/07/04 10:20:29;;;;;;;4.45;2.17;;;21.40;86.80;;;;;;5007162;28;20025;-75
2022/07/04 10:22:56;;;;;;;4.65;1.98;;;21.50;86.50;;;;;;5006844;28;20508;-75
2022/07/04 10:25:22;;;;;;;5.28;1.90;;;21.60;86.40;;;;;;4995920;28;20057;-75
2022/07/04 10:27:50;;;;;;;6.07;2.00;;;21.60;86.30;;;;;;5019234;28;20042;-76
2022/07/04 10:30:21;;;;;;;4.68;1.83;;;21.60;86.20;;;;;;5000882;28;20438;-76
2022/07/04 10:32:48;;;;;;;5.10;2.00;;;21.50;86.00;;;;;;5013623;28;20032;-74
2022/07/04 10:35:15;;;;;;;3.65;1.60;;;21.60;86.10;;;;;;5002162;28;20512;-76
2022/07/04 10:38:00;;;;;;;7.45;2.00;;;21.60;86.30;;;;;;5004401;28;20076;-76
2022/07/04 10:40:42;;;;;;;4.28;1.88;;;21.50;86.30;;;;;;5004752;28;20021;-73
2022/07/04 10:43:51;;;;;;;4.20;1.95;;;21.50;86.40;;;;;;4986463;28;20109;-74
2022/07/04 10:46:15;;;;;;;4.45;1.83;;;21.50;86.70;;;;;;5004214;28;20084;-75
2022/07/04 10:48:51;;;;;;;3.78;1.98;;;21.40;86.90;;;;;;5004810;28;20488;-77
2022/07/04 10:51:35;;;;;;;4.25;1.80;;;21.40;87.10;;;;;;5006504;28;20064;-76
2022/07/04 10:54:08;;;;;;;4.43;2.03;;;21.40;87.30;;;;;;5006959;28;20044;-77
2022/07/04 10:56:52;;;;;;;4.93;2.00;;;21.40;87.40;;;;;;5008298;28;20109;-77
2022/07/04 10:59:29;;;;;;;4.20;1.92;;;21.40;87.50;;;;;;5000324;28;20032;-75
2022/07/04 11:02:18;;;;;;;5.00;1.80;;;21.30;87.40;;;;;;5010255;28;20022;-75
2022/07/04 11:04:48;;;;;;;3.63;1.77;;;21.40;87.50;;;;;;5010212;28;20420;-76
2022/07/04 11:07:18;;;;;;;4.68;1.85;;;21.40;87.40;;;;;;5010237;28;20025;-77
2022/07/04 11:09:44;;;;;;;3.53;1.60;;;21.40;87.30;;;;;;5009611;28;20037;-76
2022/07/04 11:12:10;;;;;;;4.40;1.67;;;21.40;87.10;;;;;;5010410;28;20029;-75
2022/07/04 11:14:42;;;;;;;5.10;1.90;;;21.40;87.10;;;;;;5014267;28;20029;-81
2022/07/04 11:17:34;;;;;;;4.43;2.00;;;21.50;87.10;;;;;;5014193;28;20026;-76
2022/07/04 11:20:00;;;;;;;4.70;1.73;;;21.40;87.10;;;;;;5024293;28;20120;-76
2022/07/04 11:22:26;;;;;;;5.38;1.88;;;21.40;87.30;;;;;;5010042;28;20124;-77
2022/07/04 11:24:52;;;;;;;3.90;1.52;;;21.40;87.30;;;;;;5010460;28;20025;-77
2022/07/04 11:27:23;;;;;;;3.25;1.63;;;21.40;87.30;;;;;;5010630;28;20025;-76
2022/07/04 11:29:52;;;;;;;4.40;1.73;;;21.40;87.30;;;;;;5028163;28;20033;-76
2022/07/04 11:32:29;;;;;;;4.32;1.80;;;21.40;87.40;;;;;;5027743;28;20079;-76
2022/07/04 11:34:55;;;;;;;4.22;1.55;;;21.40;87.50;;;;;;5010647;28;20025;-76
2022/07/04 11:37:21;;;;;;;4.57;1.98;;;21.30;87.50;;;;;;5010309;28;20026;-76
2022/07/04 11:39:51;;;;;;;3.60;1.55;;;21.30;87.40;;;;;;5028087;28;20029;-76
2022/07/04 11:45:04;;;;;;;4.43;1.60;;;21.30;87.60;;;;;;5028128;28;20820;-75
2022/07/04 11:47:41;;;;;;;3.65;1.50;;;21.30;87.70;;;;;;5027667;28;20412;-76
2022/07/04 11:50:11;;;;;;;3.83;1.70;;;21.30;87.80;;;;;;5010193;28;20075;-76
2022/07/04 11:52:37;;;;;;;3.38;1.45;;;21.30;87.90;;;;;;5009713;28;20025;-76
2022/07/04 11:55:04;;;;;;;3.88;1.65;;;21.20;88.10;;;;;;5009714;28;20044;-75
2022/07/04 11:57:34;;;;;;;4.55;1.90;;;21.20;88.00;;;;;;5010083;28;20033;-77
2022/07/04 12:00:05;;;;;;;4.53;1.80;;;21.30;87.90;;;;;;5009711;28;20075;-76
2022/07/04 12:02:32;;;;;;;3.55;1.63;;;21.30;87.70;;;;;;5009296;28;20116;-76
2022/07/04 12:04:59;;;;;;;2.70;1.52;;;21.40;87.60;;;;;;5009530;28;20033;-76
2022/07/04 12:07:27;;;;;;;2.65;1.35;;;21.40;87.40;;;;;;5027564;28;20033;-76
2022/07/04 12:09:54;;;;;;;2.63;1.40;;;21.40;87.30;;;;;;5009868;28;20033;-75
2022/07/04 12:12:21;;;;;;;3.50;1.55;;;21.40;87.30;;;;;;5008993;28;20060;-75
2022/07/04 12:15:05;;;;;;;4.88;1.67;;;21.40;87.30;;;;;;5027345;28;20071;-76
2022/07/04 12:17:32;;;;;;;3.85;1.65;;;21.30;87.40;;;;;;5027098;28;20111;-75
2022/07/04 12:20:00;;;;;;;3.35;1.63;;;21.30;87.60;;;;;;5027309;28;20033;-75
2022/07/04 12:22:52;;;;;;;3.53;1.70;;;21.30;87.60;;;;;;5026905;28;20489;-75
2022/07/04 12:25:24;;;;;;;3.50;1.45;;;21.30;87.80;;;;;;5027365;28;20641;-75
2022/07/04 12:27:59;;;;;;;4.10;1.77;;;21.30;87.80;;;;;;5009536;28;20120;-75
2022/07/04 12:30:27;;;;;;;3.67;1.40;;;21.30;87.90;;;;;;5009587;28;20064;-74
2022/07/04 12:32:56;;;;;;;4.13;1.60;;;21.20;88.00;;;;;;5009075;28;20420;-75
2022/07/04 12:35:47;;;;;;;4.90;1.67;;;21.30;88.10;;;;;;5009249;28;20571;-75
2022/07/04 12:38:22;;;;;;;4.00;1.77;;;21.20;88.20;;;;;;5027045;28;20906;-74
2022/07/04 12:40:59;;;;;;;3.42;1.38;;;21.20;88.30;;;;;;5027201;28;20076;-75
2022/07/04 12:43:42;;;;;;;4.47;2.13;;;21.30;88.30;;;;;;5008549;28;20033;-75
2022/07/04 12:46:10;;;;;;;2.85;1.50;;;21.30;88.30;;;;;;5027036;28;20520;-76
2022/07/04 12:48:36;;;;;;;4.18;1.70;;;21.30;88.20;;;;;;5009062;28;20512;-75
2022/07/04 12:51:13;;;;;;;2.50;1.40;;;21.30;88.00;;;;;;5026760;28;20543;-75
2022/07/04 12:53:41;;;;;;;4.07;1.70;;;21.30;87.90;;;;;;5026292;28;20061;-76
2022/07/04 12:56:08;;;;;;;2.58;1.40;;;21.30;87.80;;;;;;5026570;28;20240;-75
2022/07/04 12:58:34;;;;;;;4.22;1.63;;;21.30;87.70;;;;;;5008626;28;20025;-75
2022/07/04 13:00:59;;;;;;;3.80;1.40;;;21.30;87.60;;;;;;5008716;28;20056;-74
2022/07/04 13:03:25;;;;;;;3.00;1.45;;;21.30;87.60;;;;;;5026193;28;20057;-76
2022/07/04 13:05:51;;;;;;;3.17;1.40;;;21.30;87.70;;;;;;5026375;28;20037;-75